Pays
Station

 

Conditions  météo  pour  Wildwood Automatic Weather Observing/Reporting System  -  Etats-Unis    Etats-Unis

  
4 °C
    
 
 

METAR pour Wildwood Automatic Weather Observing/Reporting System :

KWWD 230655Z AUTO 30015G26KT 10SM CLR 04/M04 A2977 RMK AO2 PK WND 28028/0640 SLP082 T00391044

 

Voici le bulletin pour Wildwood Automatic Weather Observing/Reporting System - Etats-Unis.
 
Le bulletin a été fait il y a 10 minutes, à 06:55 UTC .
Le vent soufflait à la vitesse de 7.7 mètres par seconde avec des rafales jusqu'à 13.4 mètres par seconde de Ouest/Nord-ouest (300°).
 
La température était de 4 °C, avec un point de rosée à -4 °C.
La température ressentie était de -2 °C.
 
La pression atmosphérique était de 1008 hPa.
L'humidité relative était de 55.9%.
 
Le ciel était clair.
 
La visibilité globale était de 16.1 kilomètres.
 

 
 
 

Pays :   A   B   C   D   E   F   G   H   I   J   K   L   M   N   O   P   Q   R   S   T   U   V   W   Y   Z

 

Partenaires :  Info Météo avec Met'info
Météo Marine avec MeteoMarine.net
Infos Site  |  Infos Légales  |  Crédits  |  Confidentialité
Contactez-nous  |  Ajouter aux favoris
© 2013-2019 METAR - Tous droits réservés